createdAt,value
2023-02-13T00:00:34.077Z,48.00
2023-02-13T00:03:20.048Z,62.70
2023-02-13T00:05:47.250Z,64.80
2023-02-13T00:08:14.343Z,83.60
2023-02-13T00:10:41.478Z,35.50
2023-02-13T00:13:08.651Z,34.60
2023-02-13T00:15:35.884Z,44.00
2023-02-13T00:18:03.415Z,35.90
2023-02-13T00:20:30.742Z,79.60
2023-02-13T00:22:59.396Z,82.40
2023-02-13T00:25:26.923Z,122.40
2023-02-13T00:27:54.254Z,70.70
2023-02-13T00:30:22.564Z,40.10
2023-02-13T00:32:51.248Z,53.10
2023-02-13T00:35:18.586Z,91.80
2023-02-13T00:37:45.711Z,51.90
2023-02-13T00:40:13.221Z,91.60
2023-02-13T00:42:40.360Z,88.30
2023-02-13T00:45:07.863Z,65.80
2023-02-13T00:47:34.995Z,57.40
2023-02-13T00:50:02.094Z,93.00
2023-02-13T00:52:29.679Z,56.90
2023-02-13T00:54:56.830Z,44.00
2023-02-13T00:57:24.032Z,66.30
2023-02-13T00:59:51.183Z,73.60
2023-02-13T01:02:18.976Z,30.40
2023-02-13T01:04:46.155Z,55.80
2023-02-13T01:07:15.677Z,23.20
2023-02-13T01:09:44.514Z,36.30
2023-02-13T01:12:12.033Z,28.30
2023-02-13T01:14:39.133Z,43.50
2023-02-13T01:17:06.546Z,33.80
2023-02-13T01:19:33.701Z,36.00
2023-02-13T01:22:00.850Z,42.00
2023-02-13T01:24:30.204Z,36.70
2023-02-13T01:26:58.881Z,80.10
2023-02-13T01:29:26.031Z,66.40
2023-02-13T01:31:53.374Z,51.90
2023-02-13T01:34:20.537Z,52.30
2023-02-13T01:36:47.636Z,70.30
2023-02-13T01:39:15.042Z,46.40
2023-02-13T01:41:43.070Z,57.40
2023-02-13T01:44:44.772Z,37.50
2023-02-13T01:47:15.328Z,91.80
2023-02-13T01:49:46.625Z,70.50
2023-02-13T01:52:14.926Z,38.70
2023-02-13T01:54:42.461Z,28.30
2023-02-13T01:57:20.107Z,41.40
2023-02-13T01:59:53.402Z,26.10
2023-02-13T02:02:21.709Z,16.70
2023-02-13T02:04:49.656Z,17.50
2023-02-13T02:07:25.991Z,17.30
2023-02-13T02:09:59.231Z,37.50
2023-02-13T02:12:38.647Z,33.00
2023-02-13T02:15:06.948Z,24.40
2023-02-13T02:17:34.207Z,26.20
2023-02-13T02:20:23.201Z,40.70
2023-02-13T02:23:11.031Z,29.30
2023-02-13T02:25:38.207Z,42.90
2023-02-13T02:28:11.986Z,44.40
2023-02-13T02:31:03.876Z,32.50
2023-02-13T02:34:08.395Z,58.20
2023-02-13T02:36:44.251Z,48.80
2023-02-13T02:39:32.580Z,52.40
2023-02-13T02:42:14.905Z,36.40
2023-02-13T02:45:00.767Z,35.40
2023-02-13T02:47:58.124Z,31.30
2023-02-13T02:50:38.562Z,25.50
2023-02-13T02:53:23.435Z,29.60
2023-02-13T02:55:59.004Z,14.60
2023-02-13T03:01:43.352Z,35.30
2023-02-13T03:04:55.937Z,25.60
2023-02-13T03:07:23.346Z,55.80
2023-02-13T03:10:13.075Z,24.40
2023-02-13T03:13:07.753Z,18.10
2023-02-13T03:15:57.339Z,16.90
2023-02-13T03:18:43.956Z,41.40
2023-02-13T03:21:36.499Z,31.10
2023-02-13T03:24:11.972Z,62.10
2023-02-13T03:26:52.742Z,46.60
2023-02-13T03:29:56.278Z,57.80
2023-02-13T03:32:51.663Z,45.20
2023-02-13T03:35:53.599Z,43.70
2023-02-13T03:38:38.348Z,37.60
2023-02-13T03:41:18.556Z,38.00
2023-02-13T03:44:03.024Z,30.50
2023-02-13T03:46:36.704Z,27.10
2023-02-13T03:49:25.171Z,78.40
2023-02-13T03:51:58.901Z,52.70
2023-02-13T03:54:57.092Z,24.20
2023-02-13T03:57:45.180Z,26.60
2023-02-13T04:00:16.811Z,31.80
2023-02-13T04:03:16.888Z,67.90
2023-02-13T04:05:49.306Z,52.70
2023-02-13T04:08:16.584Z,40.90
2023-02-13T04:10:56.311Z,169.50
2023-02-13T04:13:42.257Z,88.30
2023-02-13T04:16:11.907Z,69.60
2023-02-13T04:18:40.022Z,67.40
2023-02-13T04:21:08.182Z,135.20
2023-02-13T04:23:36.995Z,102.90
2023-02-13T04:26:09.271Z,305.90
2023-02-13T04:28:36.498Z,248.40
2023-02-13T04:31:03.837Z,124.00
2023-02-13T04:33:31.027Z,50.80
2023-02-13T04:35:58.132Z,82.10
2023-02-13T04:38:25.247Z,54.70
2023-02-13T04:40:52.352Z,78.70
2023-02-13T04:43:19.531Z,39.20
2023-02-13T04:45:50.347Z,46.30
2023-02-13T04:48:17.511Z,94.40
2023-02-13T04:50:44.559Z,74.90
2023-02-13T04:53:11.660Z,105.40
2023-02-13T04:55:38.808Z,49.70
2023-02-13T04:58:05.937Z,37.40
2023-02-13T05:00:33.089Z,50.10
2023-02-13T05:03:11.883Z,27.60
2023-02-13T05:05:40.193Z,24.40
2023-02-13T05:08:08.874Z,21.50
2023-02-13T05:10:36.001Z,28.80
2023-02-13T05:13:03.790Z,38.10
2023-02-13T05:15:30.991Z,28.50
2023-02-13T05:17:58.101Z,36.30
2023-02-13T05:20:25.501Z,47.20
2023-02-13T05:23:12.906Z,26.60
2023-02-13T05:25:41.918Z,18.00
2023-02-13T05:28:29.527Z,16.30
2023-02-13T05:30:57.646Z,19.90
2023-02-13T05:33:25.157Z,23.30
2023-02-13T05:35:52.304Z,26.00
2023-02-13T05:38:19.381Z,41.20
2023-02-13T05:40:46.497Z,53.60
2023-02-13T05:43:13.554Z,47.10
2023-02-13T05:45:40.656Z,46.20
2023-02-13T05:48:07.890Z,34.90
2023-02-13T05:50:35.033Z,47.00
2023-02-13T05:53:02.259Z,33.00
2023-02-13T05:55:29.307Z,73.00
2023-02-13T05:57:57.978Z,20.70
2023-02-13T06:00:25.547Z,14.70
2023-02-13T06:02:52.803Z,37.90
2023-02-13T06:05:19.927Z,25.00
2023-02-13T06:07:47.028Z,33.10
2023-02-13T06:10:14.101Z,54.20
2023-02-13T06:12:43.250Z,83.50
2023-02-13T06:15:10.347Z,14.50
2023-02-13T06:17:37.423Z,60.30
2023-02-13T06:20:05.088Z,33.00
2023-02-13T06:22:32.234Z,16.20
2023-02-13T06:24:59.282Z,12.50
2023-02-13T06:27:26.382Z,31.50
2023-02-13T06:29:53.455Z,30.80
2023-02-13T06:32:20.553Z,28.20
2023-02-13T06:34:47.682Z,20.80
2023-02-13T06:37:14.780Z,20.20
2023-02-13T06:39:42.877Z,12.70
2023-02-13T06:42:10.002Z,24.80
2023-02-13T06:44:37.077Z,27.60
2023-02-13T06:47:04.268Z,15.90
2023-02-13T06:49:31.386Z,22.00
2023-02-13T06:51:58.506Z,18.70
2023-02-13T06:54:41.119Z,9.80
2023-02-13T06:57:12.779Z,14.50
2023-02-13T06:59:39.955Z,13.90
2023-02-13T07:02:07.024Z,23.50
2023-02-13T07:04:34.093Z,37.40
2023-02-13T07:07:01.169Z,23.20
2023-02-13T07:09:28.473Z,11.70
2023-02-13T07:11:55.556Z,53.70
2023-02-13T07:14:22.727Z,66.60
2023-02-13T07:16:49.900Z,103.40
2023-02-13T07:19:17.030Z,228.30
2023-02-13T07:21:44.085Z,120.40
2023-02-13T07:24:11.326Z,446.70
2023-02-13T07:26:38.506Z,546.90
2023-02-13T07:29:11.614Z,366.50
2023-02-13T07:31:40.237Z,603.10
2023-02-13T07:34:08.042Z,706.90
2023-02-13T07:36:35.152Z,327.70
2023-02-13T07:39:02.272Z,238.40
2023-02-13T07:41:29.381Z,402.50
2023-02-13T07:43:56.564Z,371.00
2023-02-13T07:46:23.790Z,284.90
2023-02-13T07:48:54.173Z,221.70
2023-02-13T07:51:25.104Z,60.90
2023-02-13T07:53:56.523Z,724.10
2023-02-13T07:56:23.802Z,494.70
2023-02-13T07:58:50.927Z,302.00
2023-02-13T08:01:18.040Z,236.90
2023-02-13T08:03:50.834Z,106.60
2023-02-13T08:06:19.549Z,88.50
2023-02-13T08:08:46.975Z,71.10
2023-02-13T08:11:45.485Z,165.30
2023-02-13T08:14:12.710Z,178.70
2023-02-13T08:16:39.877Z,50.80
2023-02-13T08:19:07.013Z,48.80
2023-02-13T08:21:35.444Z,67.00
2023-02-13T08:24:02.519Z,122.50
2023-02-13T08:26:31.814Z,91.20
2023-02-13T08:28:59.385Z,79.30
2023-02-13T08:31:27.195Z,45.30
2023-02-13T08:33:57.030Z,56.70
2023-02-13T08:36:24.697Z,40.20
2023-02-13T08:38:51.789Z,29.70
2023-02-13T08:41:21.018Z,55.10
2023-02-13T08:43:52.469Z,40.60
2023-02-13T08:46:19.709Z,35.00
2023-02-13T08:48:46.999Z,26.00
2023-02-13T08:51:15.066Z,26.00
2023-02-13T08:53:42.759Z,19.00
2023-02-13T08:56:11.034Z,10.40
2023-02-13T08:58:38.338Z,27.60
2023-02-13T09:01:07.376Z,12.60
2023-02-13T09:03:35.407Z,11.40
2023-02-13T09:06:03.146Z,29.60
2023-02-13T09:08:30.757Z,30.30
2023-02-13T09:11:02.055Z,35.50
2023-02-13T09:13:33.171Z,16.00
2023-02-13T09:16:01.628Z,15.40
2023-02-13T09:18:29.225Z,20.00
2023-02-13T09:21:06.018Z,49.20
2023-02-13T09:23:35.807Z,50.70
2023-02-13T09:26:05.497Z,15.70
2023-02-13T09:28:34.427Z,31.90
2023-02-13T09:31:16.665Z,22.40
2023-02-13T09:33:48.400Z,35.80
2023-02-13T09:36:20.167Z,27.00
2023-02-13T09:38:51.961Z,20.60
2023-02-13T09:41:32.073Z,17.10
2023-02-13T09:44:05.444Z,44.10
2023-02-13T09:46:34.400Z,33.90
2023-02-13T09:49:16.105Z,44.10
2023-02-13T09:51:45.917Z,54.40
2023-02-13T09:54:19.258Z,40.90
2023-02-13T09:57:08.332Z,31.70
2023-02-13T10:00:03.839Z,31.00
2023-02-13T10:02:59.461Z,26.80
2023-02-13T10:05:35.748Z,24.50
2023-02-13T10:08:21.003Z,29.50
2023-02-13T10:11:15.007Z,48.10
2023-02-13T10:13:59.870Z,43.60
2023-02-13T10:16:38.413Z,238.20
2023-02-13T10:19:17.237Z,233.20
2023-02-13T10:21:53.196Z,253.30
2023-02-13T10:24:42.446Z,400.20
2023-02-13T10:27:18.395Z,352.00
2023-02-13T10:30:07.095Z,128.40
2023-02-13T10:32:44.153Z,65.10
2023-02-13T10:35:29.004Z,50.50
2023-02-13T10:37:58.755Z,40.10
2023-02-13T10:40:37.645Z,31.60
2023-02-13T10:43:04.765Z,51.50
2023-02-13T10:45:57.561Z,60.30
2023-02-13T10:48:57.307Z,36.30
2023-02-13T10:51:36.027Z,42.50
2023-02-13T10:54:25.246Z,62.60
2023-02-13T10:57:01.292Z,78.20
2023-02-13T10:59:44.997Z,59.40
2023-02-13T11:02:24.429Z,94.20
2023-02-13T11:05:41.111Z,58.00
2023-02-13T11:08:23.758Z,42.10
2023-02-13T11:10:51.823Z,57.70
2023-02-13T11:13:25.765Z,32.30
2023-02-13T11:15:59.938Z,20.50
2023-02-13T11:18:31.280Z,16.70
2023-02-13T11:21:08.073Z,15.60
2023-02-13T11:23:43.091Z,9.30
2023-02-13T11:26:12.577Z,9.30
2023-02-13T11:28:54.895Z,11.20
2023-02-13T11:31:28.789Z,8.50
2023-02-13T11:33:59.039Z,8.20
2023-02-13T11:36:32.546Z,8.90
2023-02-13T11:39:06.510Z,14.60
2023-02-13T11:41:43.860Z,27.20
2023-02-13T11:44:32.082Z,21.80
2023-02-13T11:47:01.483Z,20.90
2023-02-13T11:49:34.870Z,33.30
2023-02-13T11:52:05.092Z,17.80
2023-02-13T11:54:45.785Z,12.40
2023-02-13T11:57:21.056Z,13.70
2023-02-13T11:59:50.588Z,14.20
2023-02-13T12:02:17.877Z,29.80
2023-02-13T12:04:45.811Z,28.10
2023-02-13T12:07:33.446Z,14.50
2023-02-13T12:10:09.358Z,11.00
2023-02-13T12:12:43.110Z,8.30
2023-02-13T12:15:19.171Z,9.80
2023-02-13T12:17:51.392Z,7.90
2023-02-13T12:20:18.739Z,12.30
2023-02-13T12:23:24.394Z,11.10
2023-02-13T12:25:54.606Z,4.90
2023-02-13T12:31:17.381Z,4.30
2023-02-13T12:34:26.675Z,8.30
2023-02-13T12:37:06.264Z,8.30
2023-02-13T12:39:41.377Z,7.80
2023-02-13T12:42:29.774Z,6.70
2023-02-13T12:45:05.888Z,6.40
2023-02-13T12:47:45.989Z,6.20
2023-02-13T12:50:19.207Z,7.90
2023-02-13T12:52:50.855Z,18.80
2023-02-13T12:55:43.746Z,36.80
2023-02-13T12:58:13.942Z,28.30
2023-02-13T13:01:00.023Z,31.10
2023-02-13T13:03:56.247Z,18.20
2023-02-13T13:06:43.514Z,10.60
2023-02-13T13:09:21.773Z,13.00
2023-02-13T13:11:48.911Z,11.40
2023-02-13T13:14:27.343Z,8.70
2023-02-13T13:17:23.088Z,4.70
2023-02-13T13:20:23.322Z,10.60
2023-02-13T13:22:57.248Z,13.60
2023-02-13T13:25:27.658Z,5.50
2023-02-13T13:28:01.370Z,8.20
2023-02-13T13:30:38.056Z,12.60
2023-02-13T13:33:22.809Z,8.70
2023-02-13T13:36:08.837Z,8.60
2023-02-13T13:41:22.080Z,5.80
2023-02-13T13:44:02.722Z,9.40
2023-02-13T13:47:01.847Z,24.10
2023-02-13T13:49:38.317Z,6.90
2023-02-13T13:52:20.983Z,25.60
2023-02-13T13:54:54.226Z,20.30
2023-02-13T13:57:26.040Z,12.00
2023-02-13T13:59:59.718Z,21.30
2023-02-13T14:02:38.546Z,18.20
2023-02-13T14:05:31.845Z,27.00
2023-02-13T14:08:01.904Z,12.90
2023-02-13T14:10:29.022Z,8.70
2023-02-13T14:12:56.117Z,8.20
2023-02-13T14:15:38.899Z,7.00
2023-02-13T14:18:15.358Z,8.30
2023-02-13T14:20:43.143Z,6.70
2023-02-13T14:23:40.731Z,7.90
2023-02-13T14:26:13.897Z,6.30
2023-02-13T14:28:50.296Z,4.60
2023-02-13T14:31:27.608Z,10.30
2023-02-13T14:34:09.307Z,9.30
2023-02-13T14:36:39.681Z,32.70
2023-02-13T14:39:16.318Z,40.10
2023-02-13T14:42:01.903Z,33.40
2023-02-13T14:44:51.245Z,16.10
2023-02-13T14:47:24.415Z,9.00
2023-02-13T14:49:53.102Z,17.20
2023-02-13T14:52:27.721Z,11.00
2023-02-13T14:55:07.092Z,35.40
2023-02-13T14:57:37.955Z,40.70
2023-02-13T15:00:13.330Z,17.70
2023-02-13T15:02:48.719Z,12.60
2023-02-13T15:05:20.341Z,131.60
2023-02-13T15:07:58.895Z,367.10
2023-02-13T15:10:41.225Z,388.70
2023-02-13T15:13:24.038Z,460.00
2023-02-13T15:15:53.962Z,281.10
2023-02-13T15:18:28.124Z,279.60
2023-02-13T15:20:58.822Z,86.20
2023-02-13T15:23:32.513Z,180.00
2023-02-13T15:26:07.107Z,105.90
2023-02-13T15:28:35.854Z,159.70
2023-02-13T15:31:05.622Z,179.90
2023-02-13T15:33:34.167Z,95.60
2023-02-13T15:36:04.854Z,37.30
2023-02-13T15:38:36.916Z,153.50
2023-02-13T15:41:09.214Z,73.40
2023-02-13T15:43:48.672Z,62.80
2023-02-13T15:46:33.780Z,73.00
2023-02-13T15:49:16.824Z,96.30
2023-02-13T15:51:44.540Z,85.40
2023-02-13T15:54:33.291Z,38.90
2023-02-13T15:57:06.691Z,80.40
2023-02-13T15:59:39.755Z,29.00
2023-02-13T16:02:15.162Z,31.10
2023-02-13T16:04:42.863Z,24.80
2023-02-13T16:07:14.055Z,37.10
2023-02-13T16:09:41.523Z,27.90
2023-02-13T16:12:25.464Z,21.50
2023-02-13T16:14:52.682Z,18.40
2023-02-13T16:17:33.274Z,13.80
2023-02-13T16:20:11.483Z,14.30
2023-02-13T16:22:48.921Z,7.80
2023-02-13T16:25:21.375Z,19.80
2023-02-13T16:27:57.109Z,11.70
2023-02-13T16:30:26.259Z,12.20
2023-02-13T16:33:29.002Z,13.80
2023-02-13T16:36:11.369Z,13.60
2023-02-13T16:38:49.662Z,14.80
2023-02-13T16:41:19.999Z,19.70
2023-02-13T16:43:56.800Z,15.70
2023-02-13T16:46:36.124Z,13.60
2023-02-13T16:49:09.499Z,31.50
2023-02-13T16:51:58.797Z,17.30
2023-02-13T16:54:34.191Z,17.90
2023-02-13T16:57:03.180Z,20.30
2023-02-13T16:59:47.848Z,12.70
2023-02-13T17:02:16.772Z,22.90
2023-02-13T17:04:50.421Z,23.40
2023-02-13T17:07:26.796Z,18.30
2023-02-13T17:09:59.791Z,14.40
2023-02-13T17:12:28.962Z,28.70
2023-02-13T17:14:58.418Z,23.40
2023-02-13T17:17:28.686Z,26.70
2023-02-13T17:19:55.996Z,19.90
2023-02-13T17:22:30.829Z,15.00
2023-02-13T17:24:59.185Z,13.60
2023-02-13T17:27:26.976Z,7.90
2023-02-13T17:29:54.113Z,18.00
2023-02-13T17:32:25.014Z,20.10
2023-02-13T17:34:52.498Z,17.70
2023-02-13T17:37:21.073Z,14.30
2023-02-13T17:39:49.254Z,15.50
2023-02-13T17:42:20.287Z,11.10
2023-02-13T17:44:47.569Z,12.50
2023-02-13T17:47:14.717Z,12.50
2023-02-13T17:49:42.259Z,11.80
2023-02-13T17:52:15.033Z,10.70
2023-02-13T17:54:42.310Z,11.40
2023-02-13T17:57:09.825Z,15.30
2023-02-13T17:59:37.054Z,18.20
2023-02-13T18:02:04.325Z,29.00
2023-02-13T18:04:31.432Z,46.10
2023-02-13T18:06:58.602Z,23.10
2023-02-13T18:09:25.837Z,25.80
2023-02-13T18:12:04.756Z,28.50
2023-02-13T18:14:33.498Z,14.10
2023-02-13T18:17:00.863Z,9.50
2023-02-13T18:19:28.334Z,13.50
2023-02-13T18:21:55.521Z,17.10
2023-02-13T18:24:22.679Z,13.30
2023-02-13T18:26:49.807Z,21.20
2023-02-13T18:29:17.060Z,13.80
2023-02-13T18:31:44.287Z,12.00
2023-02-13T18:34:11.515Z,18.50
2023-02-13T18:36:38.616Z,12.50
2023-02-13T18:39:05.718Z,12.70
2023-02-13T18:41:32.840Z,28.70
2023-02-13T18:43:59.966Z,30.80
2023-02-13T18:46:27.101Z,27.80
2023-02-13T18:48:54.221Z,178.10
2023-02-13T18:51:21.332Z,95.60
2023-02-13T18:53:48.517Z,114.40
2023-02-13T18:56:15.643Z,92.20
2023-02-13T18:58:42.772Z,28.80
2023-02-13T19:01:12.169Z,28.60
2023-02-13T19:03:39.295Z,51.00
2023-02-13T19:06:11.743Z,26.50
2023-02-13T19:08:39.356Z,20.20
2023-02-13T19:11:08.786Z,57.00
2023-02-13T19:13:36.529Z,70.10
2023-02-13T19:16:05.204Z,48.70
2023-02-13T19:18:32.439Z,47.90
2023-02-13T19:21:04.322Z,47.30
2023-02-13T19:23:31.609Z,55.30
2023-02-13T19:25:58.761Z,69.10
2023-02-13T19:28:25.984Z,25.70
2023-02-13T19:30:53.186Z,54.90
2023-02-13T19:33:20.309Z,50.80
2023-02-13T19:35:57.848Z,45.10
2023-02-13T19:38:25.000Z,110.60
2023-02-13T19:40:52.259Z,47.20
2023-02-13T19:43:19.391Z,38.00
2023-02-13T19:45:46.459Z,83.90
2023-02-13T19:48:13.719Z,67.80
2023-02-13T19:50:41.247Z,111.30
2023-02-13T19:53:08.579Z,220.70
2023-02-13T19:55:35.974Z,175.70
2023-02-13T19:58:03.238Z,52.50
2023-02-13T20:00:30.741Z,48.20
2023-02-13T20:03:04.934Z,107.50
2023-02-13T20:05:38.518Z,214.30
2023-02-13T20:08:06.108Z,220.80
2023-02-13T20:10:33.250Z,224.70
2023-02-13T20:13:01.523Z,143.10
2023-02-13T20:15:31.491Z,120.70
2023-02-13T20:17:59.518Z,195.30
2023-02-13T20:20:28.687Z,62.80
2023-02-13T20:22:55.808Z,389.60
2023-02-13T20:25:23.190Z,103.50
2023-02-13T20:27:50.223Z,145.50
2023-02-13T20:30:17.503Z,270.70
2023-02-13T20:32:44.786Z,75.30
2023-02-13T20:35:11.904Z,367.20
2023-02-13T20:37:39.250Z,229.20
2023-02-13T20:40:07.062Z,644.30
2023-02-13T20:42:34.605Z,162.70
2023-02-13T20:45:01.901Z,279.00
2023-02-13T20:47:29.314Z,183.80
2023-02-13T20:49:56.487Z,195.40
2023-02-13T20:52:23.613Z,154.90
2023-02-13T20:54:50.819Z,139.40
2023-02-13T20:57:18.799Z,185.00
2023-02-13T20:59:46.519Z,175.10
2023-02-13T21:02:13.693Z,247.80
2023-02-13T21:04:40.948Z,176.10
2023-02-13T21:07:09.445Z,218.70
2023-02-13T21:09:37.425Z,109.30
2023-02-13T21:12:05.267Z,139.90
2023-02-13T21:14:32.546Z,65.80
2023-02-13T21:16:59.649Z,104.20
2023-02-13T21:19:26.878Z,52.40
2023-02-13T21:21:54.205Z,80.10
2023-02-13T21:24:22.946Z,56.30
2023-02-13T21:26:52.495Z,66.90
2023-02-13T21:29:19.951Z,61.40
2023-02-13T21:31:47.877Z,35.30
2023-02-13T21:34:16.864Z,52.70
2023-02-13T21:36:44.170Z,26.50
2023-02-13T21:39:13.015Z,43.10
2023-02-13T21:41:42.397Z,31.20
2023-02-13T21:44:14.256Z,37.30
2023-02-13T21:46:42.951Z,20.10
2023-02-13T21:49:16.014Z,16.80
2023-02-13T21:51:43.622Z,49.40
2023-02-13T21:54:11.739Z,32.50
2023-02-13T21:56:41.203Z,53.30
2023-02-13T21:59:08.498Z,33.70
2023-02-13T22:01:47.520Z,37.80
2023-02-13T22:04:15.225Z,53.50
2023-02-13T22:06:42.938Z,34.00
2023-02-13T22:09:15.719Z,23.50
2023-02-13T22:11:43.155Z,22.20
2023-02-13T22:14:17.294Z,15.70
2023-02-13T22:16:45.674Z,29.50
2023-02-13T22:19:15.513Z,36.90
2023-02-13T22:21:42.895Z,31.10
2023-02-13T22:24:10.069Z,23.50
2023-02-13T22:26:39.744Z,29.00
2023-02-13T22:29:11.374Z,23.60
2023-02-13T22:31:39.141Z,121.00
2023-02-13T22:34:06.971Z,55.30
2023-02-13T22:36:39.111Z,98.90
2023-02-13T22:39:08.239Z,51.40
2023-02-13T22:41:35.669Z,36.30
2023-02-13T22:44:02.795Z,31.00
2023-02-13T22:46:32.114Z,32.80
2023-02-13T22:48:59.669Z,102.20
2023-02-13T22:51:29.815Z,22.00
2023-02-13T22:53:57.841Z,16.40
2023-02-13T22:56:25.933Z,19.40
2023-02-13T22:58:53.652Z,14.70
2023-02-13T23:01:22.910Z,13.10
2023-02-13T23:03:50.476Z,16.80
2023-02-13T23:06:17.859Z,16.00
2023-02-13T23:08:45.092Z,16.60
2023-02-13T23:11:35.174Z,14.10
2023-02-13T23:14:03.295Z,13.40
2023-02-13T23:16:51.201Z,18.60
2023-02-13T23:19:18.357Z,20.70
2023-02-13T23:21:45.589Z,18.10
2023-02-13T23:24:12.765Z,15.80
2023-02-13T23:26:39.939Z,18.20
2023-02-13T23:29:07.094Z,32.10
2023-02-13T23:31:34.474Z,21.20
2023-02-13T23:34:01.575Z,21.20
2023-02-13T23:36:28.907Z,19.90
2023-02-13T23:38:56.049Z,29.10
2023-02-13T23:41:23.135Z,13.20
2023-02-13T23:43:50.253Z,17.00
2023-02-13T23:46:17.401Z,17.20
2023-02-13T23:48:46.125Z,17.10
2023-02-13T23:51:13.348Z,14.10
2023-02-13T23:53:40.612Z,16.70
2023-02-13T23:56:07.748Z,11.40
2023-02-13T23:58:35.139Z,15.70
